sensor_id;sensor_type;location;lat;lon;timestamp;P1;durP1;ratioP1;P2;durP2;ratioP2
54307;SDS011;40208;39.778;2.710;2023-10-19T00:02:41;3.38;;;0.80;;
54307;SDS011;40208;39.778;2.710;2023-10-19T00:05:26;4.07;;;0.80;;
54307;SDS011;40208;39.778;2.710;2023-10-19T00:08:13;3.50;;;1.35;;
54307;SDS011;40208;39.778;2.710;2023-10-19T00:11:05;6.30;;;1.23;;
54307;SDS011;40208;39.778;2.710;2023-10-19T00:13:52;2.17;;;0.68;;
54307;SDS011;40208;39.778;2.710;2023-10-19T00:16:43;2.45;;;0.90;;
54307;SDS011;40208;39.778;2.710;2023-10-19T00:20:09;8.75;;;1.60;;
54307;SDS011;40208;39.778;2.710;2023-10-19T00:23:14;6.18;;;1.23;;
54307;SDS011;40208;39.778;2.710;2023-10-19T00:26:02;5.45;;;1.17;;
54307;SDS011;40208;39.778;2.710;2023-10-19T00:29:02;5.10;;;1.05;;
54307;SDS011;40208;39.778;2.710;2023-10-19T00:32:02;4.35;;;1.08;;
54307;SDS011;40208;39.778;2.710;2023-10-19T00:34:50;2.63;;;0.82;;
54307;SDS011;40208;39.778;2.710;2023-10-19T00:37:39;8.20;;;1.20;;
54307;SDS011;40208;39.778;2.710;2023-10-19T00:40:26;3.63;;;0.82;;
54307;SDS011;40208;39.778;2.710;2023-10-19T00:43:27;5.57;;;1.83;;
54307;SDS011;40208;39.778;2.710;2023-10-19T00:46:17;5.13;;;1.00;;
54307;SDS011;40208;39.778;2.710;2023-10-19T00:49:03;4.82;;;0.90;;
54307;SDS011;40208;39.778;2.710;2023-10-19T00:51:52;8.25;;;0.95;;
54307;SDS011;40208;39.778;2.710;2023-10-19T00:55:05;5.70;;;1.25;;
54307;SDS011;40208;39.778;2.710;2023-10-19T00:57:52;7.60;;;1.05;;
54307;SDS011;40208;39.778;2.710;2023-10-19T01:00:39;6.85;;;1.23;;
54307;SDS011;40208;39.778;2.710;2023-10-19T01:03:28;5.05;;;1.20;;
54307;SDS011;40208;39.778;2.710;2023-10-19T01:06:17;10.43;;;1.73;;
54307;SDS011;40208;39.778;2.710;2023-10-19T01:09:03;2.85;;;1.15;;
54307;SDS011;40208;39.778;2.710;2023-10-19T01:11:49;5.53;;;0.93;;
54307;SDS011;40208;39.778;2.710;2023-10-19T01:14:34;6.32;;;1.30;;
54307;SDS011;40208;39.778;2.710;2023-10-19T01:17:19;8.50;;;1.20;;
54307;SDS011;40208;39.778;2.710;2023-10-19T01:20:07;6.00;;;1.35;;
54307;SDS011;40208;39.778;2.710;2023-10-19T01:23:18;8.23;;;1.63;;
54307;SDS011;40208;39.778;2.710;2023-10-19T01:26:10;9.18;;;1.13;;
54307;SDS011;40208;39.778;2.710;2023-10-19T01:28:56;4.00;;;1.17;;
54307;SDS011;40208;39.778;2.710;2023-10-19T01:31:54;10.20;;;1.63;;
54307;SDS011;40208;39.778;2.710;2023-10-19T01:34:50;6.32;;;1.35;;
54307;SDS011;40208;39.778;2.710;2023-10-19T01:37:35;9.82;;;1.40;;
54307;SDS011;40208;39.778;2.710;2023-10-19T01:40:22;7.57;;;1.45;;
54307;SDS011;40208;39.778;2.710;2023-10-19T01:43:07;7.70;;;1.33;;
54307;SDS011;40208;39.778;2.710;2023-10-19T01:45:52;11.35;;;1.25;;
54307;SDS011;40208;39.778;2.710;2023-10-19T01:48:40;7.35;;;1.30;;
54307;SDS011;40208;39.778;2.710;2023-10-19T01:51:30;5.30;;;0.90;;
54307;SDS011;40208;39.778;2.710;2023-10-19T01:54:22;7.75;;;2.03;;
54307;SDS011;40208;39.778;2.710;2023-10-19T01:57:09;6.63;;;1.13;;
54307;SDS011;40208;39.778;2.710;2023-10-19T01:59:54;5.68;;;1.35;;
54307;SDS011;40208;39.778;2.710;2023-10-19T02:02:40;11.23;;;1.65;;
54307;SDS011;40208;39.778;2.710;2023-10-19T02:05:26;10.68;;;1.55;;
54307;SDS011;40208;39.778;2.710;2023-10-19T02:08:17;11.15;;;1.73;;
54307;SDS011;40208;39.778;2.710;2023-10-19T02:11:05;6.13;;;1.13;;
54307;SDS011;40208;39.778;2.710;2023-10-19T02:14:01;5.88;;;1.23;;
54307;SDS011;40208;39.778;2.710;2023-10-19T02:16:50;8.73;;;1.42;;
54307;SDS011;40208;39.778;2.710;2023-10-19T02:19:37;6.22;;;1.40;;
54307;SDS011;40208;39.778;2.710;2023-10-19T02:22:22;4.80;;;1.33;;
54307;SDS011;40208;39.778;2.710;2023-10-19T02:25:09;7.38;;;1.50;;
54307;SDS011;40208;39.778;2.710;2023-10-19T02:27:55;7.20;;;1.75;;
54307;SDS011;40208;39.778;2.710;2023-10-19T02:30:40;9.20;;;1.30;;
54307;SDS011;40208;39.778;2.710;2023-10-19T02:33:26;3.05;;;0.93;;
54307;SDS011;40208;39.778;2.710;2023-10-19T02:36:14;7.25;;;1.10;;
54307;SDS011;40208;39.778;2.710;2023-10-19T02:39:01;5.95;;;1.45;;
54307;SDS011;40208;39.778;2.710;2023-10-19T02:41:56;7.45;;;1.08;;
54307;SDS011;40208;39.778;2.710;2023-10-19T02:44:41;4.82;;;1.20;;
54307;SDS011;40208;39.778;2.710;2023-10-19T02:47:27;4.28;;;1.02;;
54307;SDS011;40208;39.778;2.710;2023-10-19T02:50:13;4.65;;;1.33;;
54307;SDS011;40208;39.778;2.710;2023-10-19T02:53:00;6.78;;;1.20;;
54307;SDS011;40208;39.778;2.710;2023-10-19T02:55:45;13.15;;;1.60;;
54307;SDS011;40208;39.778;2.710;2023-10-19T02:58:31;7.53;;;0.88;;
54307;SDS011;40208;39.778;2.710;2023-10-19T03:01:16;6.30;;;1.30;;
54307;SDS011;40208;39.778;2.710;2023-10-19T03:04:09;5.72;;;1.02;;
54307;SDS011;40208;39.778;2.710;2023-10-19T03:06:56;8.18;;;1.23;;
54307;SDS011;40208;39.778;2.710;2023-10-19T03:09:42;9.32;;;1.50;;
54307;SDS011;40208;39.778;2.710;2023-10-19T03:12:33;7.07;;;1.40;;
54307;SDS011;40208;39.778;2.710;2023-10-19T03:15:18;8.68;;;1.50;;
54307;SDS011;40208;39.778;2.710;2023-10-19T03:18:05;10.60;;;1.73;;
54307;SDS011;40208;39.778;2.710;2023-10-19T03:20:50;8.45;;;1.88;;
54307;SDS011;40208;39.778;2.710;2023-10-19T03:23:35;10.07;;;1.50;;
54307;SDS011;40208;39.778;2.710;2023-10-19T03:26:22;6.90;;;1.27;;
54307;SDS011;40208;39.778;2.710;2023-10-19T03:29:12;8.48;;;1.30;;
54307;SDS011;40208;39.778;2.710;2023-10-19T03:31:58;5.28;;;1.45;;
54307;SDS011;40208;39.778;2.710;2023-10-19T03:34:43;10.13;;;2.00;;
54307;SDS011;40208;39.778;2.710;2023-10-19T03:37:32;6.75;;;1.50;;
54307;SDS011;40208;39.778;2.710;2023-10-19T03:40:19;11.05;;;1.88;;
54307;SDS011;40208;39.778;2.710;2023-10-19T03:43:14;8.75;;;1.67;;
54307;SDS011;40208;39.778;2.710;2023-10-19T03:46:02;12.20;;;1.83;;
54307;SDS011;40208;39.778;2.710;2023-10-19T03:48:55;5.75;;;1.52;;
54307;SDS011;40208;39.778;2.710;2023-10-19T03:51:50;10.48;;;2.08;;
54307;SDS011;40208;39.778;2.710;2023-10-19T03:54:47;7.80;;;1.63;;
54307;SDS011;40208;39.778;2.710;2023-10-19T03:57:32;8.02;;;1.98;;
54307;SDS011;40208;39.778;2.710;2023-10-19T04:00:19;8.95;;;2.33;;
54307;SDS011;40208;39.778;2.710;2023-10-19T04:03:09;7.75;;;1.17;;
54307;SDS011;40208;39.778;2.710;2023-10-19T04:05:54;5.55;;;1.40;;
54307;SDS011;40208;39.778;2.710;2023-10-19T04:08:40;5.80;;;1.40;;
54307;SDS011;40208;39.778;2.710;2023-10-19T04:11:27;9.70;;;1.73;;
54307;SDS011;40208;39.778;2.710;2023-10-19T04:14:17;6.43;;;1.08;;
54307;SDS011;40208;39.778;2.710;2023-10-19T04:17:02;6.13;;;1.65;;
54307;SDS011;40208;39.778;2.710;2023-10-19T04:19:47;9.43;;;1.30;;
54307;SDS011;40208;39.778;2.710;2023-10-19T04:22:39;5.32;;;1.85;;
54307;SDS011;40208;39.778;2.710;2023-10-19T04:25:24;7.15;;;1.08;;
54307;SDS011;40208;39.778;2.710;2023-10-19T04:28:14;8.48;;;1.27;;
54307;SDS011;40208;39.778;2.710;2023-10-19T04:31:06;8.40;;;1.33;;
54307;SDS011;40208;39.778;2.710;2023-10-19T04:33:51;9.48;;;1.58;;
54307;SDS011;40208;39.778;2.710;2023-10-19T04:36:38;18.92;;;1.52;;
54307;SDS011;40208;39.778;2.710;2023-10-19T04:39:24;9.82;;;1.85;;
54307;SDS011;40208;39.778;2.710;2023-10-19T04:42:09;7.15;;;2.00;;
54307;SDS011;40208;39.778;2.710;2023-10-19T04:44:56;8.07;;;1.73;;
54307;SDS011;40208;39.778;2.710;2023-10-19T04:47:41;7.35;;;1.38;;
54307;SDS011;40208;39.778;2.710;2023-10-19T04:50:26;9.18;;;1.50;;
54307;SDS011;40208;39.778;2.710;2023-10-19T04:53:11;13.13;;;2.00;;
54307;SDS011;40208;39.778;2.710;2023-10-19T04:55:56;13.23;;;2.38;;
54307;SDS011;40208;39.778;2.710;2023-10-19T04:58:40;9.52;;;1.40;;
54307;SDS011;40208;39.778;2.710;2023-10-19T05:01:25;8.70;;;1.63;;
54307;SDS011;40208;39.778;2.710;2023-10-19T05:04:12;13.52;;;2.00;;
54307;SDS011;40208;39.778;2.710;2023-10-19T05:06:57;8.27;;;1.45;;
54307;SDS011;40208;39.778;2.710;2023-10-19T05:09:43;9.85;;;1.83;;
54307;SDS011;40208;39.778;2.710;2023-10-19T05:12:28;6.35;;;2.17;;
54307;SDS011;40208;39.778;2.710;2023-10-19T05:15:13;8.70;;;1.25;;
54307;SDS011;40208;39.778;2.710;2023-10-19T05:17:58;7.38;;;1.67;;
54307;SDS011;40208;39.778;2.710;2023-10-19T05:20:43;6.85;;;1.35;;
54307;SDS011;40208;39.778;2.710;2023-10-19T05:23:30;4.45;;;1.38;;
54307;SDS011;40208;39.778;2.710;2023-10-19T05:26:15;7.80;;;1.70;;
54307;SDS011;40208;39.778;2.710;2023-10-19T05:29:00;10.05;;;1.80;;
54307;SDS011;40208;39.778;2.710;2023-10-19T05:31:45;11.48;;;1.58;;
54307;SDS011;40208;39.778;2.710;2023-10-19T05:34:32;13.10;;;1.55;;
54307;SDS011;40208;39.778;2.710;2023-10-19T05:37:28;7.65;;;1.40;;
54307;SDS011;40208;39.778;2.710;2023-10-19T05:40:14;5.85;;;1.50;;
54307;SDS011;40208;39.778;2.710;2023-10-19T05:42:59;10.20;;;1.55;;
54307;SDS011;40208;39.778;2.710;2023-10-19T05:45:45;7.28;;;1.30;;
54307;SDS011;40208;39.778;2.710;2023-10-19T05:48:34;5.05;;;1.58;;
54307;SDS011;40208;39.778;2.710;2023-10-19T05:51:19;10.88;;;1.42;;
54307;SDS011;40208;39.778;2.710;2023-10-19T05:54:04;5.30;;;1.40;;
54307;SDS011;40208;39.778;2.710;2023-10-19T05:56:49;8.38;;;1.70;;
54307;SDS011;40208;39.778;2.710;2023-10-19T05:59:34;12.75;;;1.75;;
54307;SDS011;40208;39.778;2.710;2023-10-19T06:02:19;10.40;;;1.58;;
54307;SDS011;40208;39.778;2.710;2023-10-19T06:05:05;9.40;;;1.73;;
54307;SDS011;40208;39.778;2.710;2023-10-19T06:07:51;6.35;;;1.40;;
54307;SDS011;40208;39.778;2.710;2023-10-19T06:10:36;6.88;;;1.48;;
54307;SDS011;40208;39.778;2.710;2023-10-19T06:13:23;6.10;;;1.40;;
54307;SDS011;40208;39.778;2.710;2023-10-19T06:16:08;9.50;;;1.80;;
54307;SDS011;40208;39.778;2.710;2023-10-19T06:18:53;9.90;;;1.73;;
54307;SDS011;40208;39.778;2.710;2023-10-19T06:21:37;9.75;;;1.67;;
54307;SDS011;40208;39.778;2.710;2023-10-19T06:24:24;14.25;;;2.25;;
54307;SDS011;40208;39.778;2.710;2023-10-19T06:27:11;11.90;;;2.30;;
54307;SDS011;40208;39.778;2.710;2023-10-19T06:29:56;14.93;;;2.40;;
54307;SDS011;40208;39.778;2.710;2023-10-19T06:32:41;9.57;;;2.15;;
54307;SDS011;40208;39.778;2.710;2023-10-19T06:35:27;7.43;;;2.50;;
54307;SDS011;40208;39.778;2.710;2023-10-19T06:38:13;10.73;;;2.08;;
54307;SDS011;40208;39.778;2.710;2023-10-19T06:40:59;8.50;;;2.05;;
54307;SDS011;40208;39.778;2.710;2023-10-19T06:43:47;8.13;;;2.20;;
54307;SDS011;40208;39.778;2.710;2023-10-19T06:46:31;14.38;;;2.20;;
54307;SDS011;40208;39.778;2.710;2023-10-19T06:49:17;17.27;;;2.67;;
54307;SDS011;40208;39.778;2.710;2023-10-19T06:52:02;10.00;;;1.83;;
54307;SDS011;40208;39.778;2.710;2023-10-19T06:54:49;9.65;;;1.92;;
54307;SDS011;40208;39.778;2.710;2023-10-19T06:57:34;8.15;;;1.88;;
54307;SDS011;40208;39.778;2.710;2023-10-19T07:00:20;10.45;;;2.03;;
54307;SDS011;40208;39.778;2.710;2023-10-19T07:03:11;13.23;;;2.28;;
54307;SDS011;40208;39.778;2.710;2023-10-19T07:05:56;10.32;;;2.28;;
54307;SDS011;40208;39.778;2.710;2023-10-19T07:08:42;11.15;;;2.05;;
54307;SDS011;40208;39.778;2.710;2023-10-19T07:11:27;9.68;;;2.08;;
54307;SDS011;40208;39.778;2.710;2023-10-19T07:14:12;9.40;;;1.83;;
54307;SDS011;40208;39.778;2.710;2023-10-19T07:16:57;26.75;;;3.65;;
54307;SDS011;40208;39.778;2.710;2023-10-19T07:19:42;19.85;;;5.43;;
54307;SDS011;40208;39.778;2.710;2023-10-19T07:22:28;17.05;;;2.50;;
54307;SDS011;40208;39.778;2.710;2023-10-19T07:25:12;11.90;;;2.80;;
54307;SDS011;40208;39.778;2.710;2023-10-19T07:28:07;8.18;;;2.45;;
54307;SDS011;40208;39.778;2.710;2023-10-19T07:33:30;8.07;;;1.98;;
54307;SDS011;40208;39.778;2.710;2023-10-19T07:36:15;13.32;;;2.63;;
54307;SDS011;40208;39.778;2.710;2023-10-19T07:39:00;15.50;;;2.28;;
54307;SDS011;40208;39.778;2.710;2023-10-19T07:41:45;13.13;;;1.92;;
54307;SDS011;40208;39.778;2.710;2023-10-19T07:44:30;26.00;;;2.88;;
54307;SDS011;40208;39.778;2.710;2023-10-19T07:47:15;19.35;;;2.88;;
54307;SDS011;40208;39.778;2.710;2023-10-19T07:50:00;14.68;;;2.97;;
54307;SDS011;40208;39.778;2.710;2023-10-19T07:52:49;13.30;;;2.53;;
54307;SDS011;40208;39.778;2.710;2023-10-19T07:55:35;24.70;;;3.17;;
54307;SDS011;40208;39.778;2.710;2023-10-19T07:58:20;11.18;;;2.00;;
54307;SDS011;40208;39.778;2.710;2023-10-19T08:01:05;9.50;;;1.92;;
54307;SDS011;40208;39.778;2.710;2023-10-19T08:03:50;13.80;;;2.25;;
54307;SDS011;40208;39.778;2.710;2023-10-19T08:06:36;13.27;;;2.20;;
54307;SDS011;40208;39.778;2.710;2023-10-19T08:09:21;6.03;;;1.85;;
54307;SDS011;40208;39.778;2.710;2023-10-19T08:12:15;7.85;;;2.03;;
54307;SDS011;40208;39.778;2.710;2023-10-19T08:15:01;6.57;;;1.30;;
54307;SDS011;40208;39.778;2.710;2023-10-19T08:17:47;8.13;;;1.70;;
54307;SDS011;40208;39.778;2.710;2023-10-19T08:20:34;5.68;;;1.67;;
54307;SDS011;40208;39.778;2.710;2023-10-19T08:23:21;7.38;;;1.85;;
54307;SDS011;40208;39.778;2.710;2023-10-19T08:26:11;7.05;;;2.05;;
54307;SDS011;40208;39.778;2.710;2023-10-19T08:28:56;10.38;;;3.55;;
54307;SDS011;40208;39.778;2.710;2023-10-19T08:31:43;22.95;;;6.57;;
54307;SDS011;40208;39.778;2.710;2023-10-19T08:34:34;35.13;;;8.40;;
54307;SDS011;40208;39.778;2.710;2023-10-19T08:37:20;29.25;;;11.13;;
54307;SDS011;40208;39.778;2.710;2023-10-19T08:40:06;24.83;;;7.70;;
54307;SDS011;40208;39.778;2.710;2023-10-19T08:42:52;20.55;;;5.72;;
54307;SDS011;40208;39.778;2.710;2023-10-19T08:45:38;12.32;;;5.20;;
54307;SDS011;40208;39.778;2.710;2023-10-19T08:48:22;24.75;;;4.97;;
54307;SDS011;40208;39.778;2.710;2023-10-19T08:51:11;14.65;;;2.85;;
54307;SDS011;40208;39.778;2.710;2023-10-19T08:53:55;8.95;;;2.10;;
54307;SDS011;40208;39.778;2.710;2023-10-19T08:56:41;6.90;;;1.90;;
54307;SDS011;40208;39.778;2.710;2023-10-19T08:59:26;6.38;;;1.67;;
54307;SDS011;40208;39.778;2.710;2023-10-19T09:02:12;8.70;;;1.40;;
54307;SDS011;40208;39.778;2.710;2023-10-19T09:04:57;5.00;;;1.25;;
54307;SDS011;40208;39.778;2.710;2023-10-19T09:07:44;6.10;;;1.40;;
54307;SDS011;40208;39.778;2.710;2023-10-19T09:10:31;4.28;;;1.20;;
54307;SDS011;40208;39.778;2.710;2023-10-19T09:13:16;3.97;;;1.42;;
54307;SDS011;40208;39.778;2.710;2023-10-19T09:16:04;19.75;;;2.03;;
54307;SDS011;40208;39.778;2.710;2023-10-19T09:18:50;21.33;;;3.25;;
54307;SDS011;40208;39.778;2.710;2023-10-19T09:21:38;10.98;;;1.70;;
54307;SDS011;40208;39.778;2.710;2023-10-19T09:24:24;13.55;;;1.52;;
54307;SDS011;40208;39.778;2.710;2023-10-19T09:27:09;3.28;;;0.80;;
54307;SDS011;40208;39.778;2.710;2023-10-19T09:29:57;9.52;;;1.05;;
54307;SDS011;40208;39.778;2.710;2023-10-19T09:32:42;8.35;;;1.60;;
54307;SDS011;40208;39.778;2.710;2023-10-19T09:35:27;11.40;;;1.50;;
54307;SDS011;40208;39.778;2.710;2023-10-19T09:38:11;8.45;;;1.90;;
54307;SDS011;40208;39.778;2.710;2023-10-19T09:40:57;2.30;;;0.57;;
54307;SDS011;40208;39.778;2.710;2023-10-19T09:43:48;6.13;;;1.02;;
54307;SDS011;40208;39.778;2.710;2023-10-19T09:46:34;11.52;;;1.70;;
54307;SDS011;40208;39.778;2.710;2023-10-19T09:49:23;9.90;;;1.65;;
54307;SDS011;40208;39.778;2.710;2023-10-19T09:52:11;11.23;;;1.60;;
54307;SDS011;40208;39.778;2.710;2023-10-19T09:58:41;21.40;;;1.27;;
54307;SDS011;40208;39.778;2.710;2023-10-19T10:01:54;5.07;;;1.40;;
54307;SDS011;40208;39.778;2.710;2023-10-19T10:04:50;6.35;;;1.65;;
54307;SDS011;40208;39.778;2.710;2023-10-19T10:07:35;12.63;;;1.50;;
54307;SDS011;40208;39.778;2.710;2023-10-19T10:10:19;6.85;;;1.40;;
54307;SDS011;40208;39.778;2.710;2023-10-19T10:16:26;9.95;;;1.67;;
54307;SDS011;40208;39.778;2.710;2023-10-19T10:19:13;9.75;;;1.75;;
54307;SDS011;40208;39.778;2.710;2023-10-19T10:22:08;9.02;;;1.90;;
54307;SDS011;40208;39.778;2.710;2023-10-19T10:24:56;10.88;;;2.17;;
54307;SDS011;40208;39.778;2.710;2023-10-19T10:27:53;8.93;;;1.38;;
54307;SDS011;40208;39.778;2.710;2023-10-19T10:31:00;8.32;;;1.40;;
54307;SDS011;40208;39.778;2.710;2023-10-19T10:34:00;6.97;;;1.20;;
54307;SDS011;40208;39.778;2.710;2023-10-19T10:37:02;7.35;;;1.50;;
54307;SDS011;40208;39.778;2.710;2023-10-19T10:39:58;7.90;;;1.30;;
54307;SDS011;40208;39.778;2.710;2023-10-19T10:42:43;8.13;;;1.38;;
54307;SDS011;40208;39.778;2.710;2023-10-19T10:45:28;5.88;;;1.48;;
54307;SDS011;40208;39.778;2.710;2023-10-19T10:48:13;5.38;;;1.38;;
54307;SDS011;40208;39.778;2.710;2023-10-19T10:51:03;7.78;;;1.65;;
54307;SDS011;40208;39.778;2.710;2023-10-19T10:54:08;26.77;;;2.92;;
54307;SDS011;40208;39.778;2.710;2023-10-19T11:00:21;11.63;;;1.80;;
54307;SDS011;40208;39.778;2.710;2023-10-19T11:03:10;8.82;;;1.83;;
54307;SDS011;40208;39.778;2.710;2023-10-19T11:06:10;5.43;;;1.38;;
54307;SDS011;40208;39.778;2.710;2023-10-19T11:08:55;8.50;;;1.75;;
54307;SDS011;40208;39.778;2.710;2023-10-19T11:11:40;7.88;;;1.65;;
54307;SDS011;40208;39.778;2.710;2023-10-19T11:14:29;9.98;;;1.67;;
54307;SDS011;40208;39.778;2.710;2023-10-19T11:17:51;8.43;;;2.00;;
54307;SDS011;40208;39.778;2.710;2023-10-19T11:21:38;8.27;;;1.23;;
54307;SDS011;40208;39.778;2.710;2023-10-19T11:24:36;8.98;;;1.50;;
54307;SDS011;40208;39.778;2.710;2023-10-19T11:27:25;8.15;;;1.23;;
54307;SDS011;40208;39.778;2.710;2023-10-19T11:30:13;9.55;;;1.50;;
54307;SDS011;40208;39.778;2.710;2023-10-19T11:33:06;5.85;;;1.48;;
54307;SDS011;40208;39.778;2.710;2023-10-19T11:35:52;5.05;;;1.30;;
54307;SDS011;40208;39.778;2.710;2023-10-19T11:38:39;9.18;;;1.38;;
54307;SDS011;40208;39.778;2.710;2023-10-19T11:41:25;8.75;;;1.33;;
54307;SDS011;40208;39.778;2.710;2023-10-19T11:44:10;9.55;;;1.30;;
54307;SDS011;40208;39.778;2.710;2023-10-19T11:46:55;8.98;;;1.13;;
54307;SDS011;40208;39.778;2.710;2023-10-19T11:49:39;4.55;;;0.90;;
54307;SDS011;40208;39.778;2.710;2023-10-19T11:52:24;6.97;;;1.27;;
54307;SDS011;40208;39.778;2.710;2023-10-19T11:55:09;9.00;;;1.85;;
54307;SDS011;40208;39.778;2.710;2023-10-19T11:57:54;24.00;;;9.75;;
54307;SDS011;40208;39.778;2.710;2023-10-19T12:00:38;32.25;;;12.20;;
54307;SDS011;40208;39.778;2.710;2023-10-19T12:03:24;34.28;;;15.90;;
54307;SDS011;40208;39.778;2.710;2023-10-19T12:06:09;84.57;;;37.42;;
54307;SDS011;40208;39.778;2.710;2023-10-19T12:08:56;100.95;;;46.38;;
54307;SDS011;40208;39.778;2.710;2023-10-19T12:11:43;113.13;;;44.40;;
54307;SDS011;40208;39.778;2.710;2023-10-19T12:14:28;280.38;;;102.43;;
54307;SDS011;40208;39.778;2.710;2023-10-19T12:17:13;184.75;;;79.85;;
54307;SDS011;40208;39.778;2.710;2023-10-19T12:19:58;127.85;;;58.17;;
54307;SDS011;40208;39.778;2.710;2023-10-19T12:22:43;82.15;;;37.72;;
54307;SDS011;40208;39.778;2.710;2023-10-19T12:25:28;96.80;;;45.67;;
54307;SDS011;40208;39.778;2.710;2023-10-19T12:28:13;66.65;;;30.13;;
54307;SDS011;40208;39.778;2.710;2023-10-19T12:30:58;60.88;;;25.27;;
54307;SDS011;40208;39.778;2.710;2023-10-19T12:33:43;32.35;;;11.60;;
54307;SDS011;40208;39.778;2.710;2023-10-19T12:36:29;16.90;;;6.18;;
54307;SDS011;40208;39.778;2.710;2023-10-19T12:39:16;17.77;;;5.55;;
54307;SDS011;40208;39.778;2.710;2023-10-19T12:42:19;14.98;;;4.00;;
54307;SDS011;40208;39.778;2.710;2023-10-19T12:45:10;15.75;;;3.42;;
54307;SDS011;40208;39.778;2.710;2023-10-19T12:47:55;14.48;;;3.05;;
54307;SDS011;40208;39.778;2.710;2023-10-19T12:50:40;16.70;;;3.00;;
54307;SDS011;40208;39.778;2.710;2023-10-19T12:53:25;12.23;;;2.83;;
54307;SDS011;40208;39.778;2.710;2023-10-19T12:56:10;7.35;;;2.00;;
54307;SDS011;40208;39.778;2.710;2023-10-19T12:58:55;12.93;;;2.85;;
54307;SDS011;40208;39.778;2.710;2023-10-19T13:01:40;10.73;;;2.22;;
54307;SDS011;40208;39.778;2.710;2023-10-19T13:04:25;13.60;;;1.63;;
54307;SDS011;40208;39.778;2.710;2023-10-19T13:07:09;10.40;;;2.10;;
54307;SDS011;40208;39.778;2.710;2023-10-19T13:09:57;11.82;;;2.25;;
54307;SDS011;40208;39.778;2.710;2023-10-19T13:12:42;8.50;;;1.80;;
54307;SDS011;40208;39.778;2.710;2023-10-19T13:15:27;12.70;;;2.25;;
54307;SDS011;40208;39.778;2.710;2023-10-19T13:18:15;10.48;;;2.08;;
54307;SDS011;40208;39.778;2.710;2023-10-19T13:21:09;12.73;;;2.35;;
54307;SDS011;40208;39.778;2.710;2023-10-19T13:23:56;16.17;;;1.88;;
54307;SDS011;40208;39.778;2.710;2023-10-19T13:26:40;5.75;;;1.52;;
54307;SDS011;40208;39.778;2.710;2023-10-19T13:29:26;15.88;;;2.63;;
54307;SDS011;40208;39.778;2.710;2023-10-19T13:32:12;11.55;;;2.03;;
54307;SDS011;40208;39.778;2.710;2023-10-19T13:34:57;14.43;;;2.35;;
54307;SDS011;40208;39.778;2.710;2023-10-19T13:37:57;21.65;;;2.72;;
54307;SDS011;40208;39.778;2.710;2023-10-19T13:40:42;12.63;;;2.13;;
54307;SDS011;40208;39.778;2.710;2023-10-19T13:44:06;11.98;;;2.25;;
54307;SDS011;40208;39.778;2.710;2023-10-19T13:46:52;20.15;;;2.85;;
54307;SDS011;40208;39.778;2.710;2023-10-19T13:58:41;14.02;;;2.60;;
54307;SDS011;40208;39.778;2.710;2023-10-19T14:01:26;20.40;;;2.72;;
54307;SDS011;40208;39.778;2.710;2023-10-19T14:15:36;20.02;;;3.05;;
54307;SDS011;40208;39.778;2.710;2023-10-19T14:18:27;23.08;;;3.38;;
54307;SDS011;40208;39.778;2.710;2023-10-19T14:24:28;21.95;;;3.15;;
54307;SDS011;40208;39.778;2.710;2023-10-19T14:30:17;15.63;;;3.15;;
54307;SDS011;40208;39.778;2.710;2023-10-19T14:33:09;18.67;;;2.83;;
54307;SDS011;40208;39.778;2.710;2023-10-19T14:43:07;20.00;;;3.08;;
54307;SDS011;40208;39.778;2.710;2023-10-19T14:49:16;18.75;;;3.38;;
54307;SDS011;40208;39.778;2.710;2023-10-19T14:54:54;19.17;;;2.97;;
54307;SDS011;40208;39.778;2.710;2023-10-19T14:57:40;18.88;;;2.50;;
54307;SDS011;40208;39.778;2.710;2023-10-19T15:00:27;27.27;;;3.55;;
54307;SDS011;40208;39.778;2.710;2023-10-19T15:03:15;27.50;;;3.80;;
54307;SDS011;40208;39.778;2.710;2023-10-19T15:06:15;25.80;;;4.63;;
54307;SDS011;40208;39.778;2.710;2023-10-19T15:09:04;22.25;;;3.95;;
54307;SDS011;40208;39.778;2.710;2023-10-19T15:12:15;17.45;;;3.60;;
54307;SDS011;40208;39.778;2.710;2023-10-19T15:15:04;20.90;;;3.25;;
54307;SDS011;40208;39.778;2.710;2023-10-19T15:17:58;20.77;;;4.05;;
54307;SDS011;40208;39.778;2.710;2023-10-19T15:20:44;22.55;;;4.57;;
54307;SDS011;40208;39.778;2.710;2023-10-19T15:23:55;25.65;;;3.90;;
54307;SDS011;40208;39.778;2.710;2023-10-19T15:26:43;18.25;;;3.33;;
54307;SDS011;40208;39.778;2.710;2023-10-19T15:29:28;23.85;;;3.40;;
54307;SDS011;40208;39.778;2.710;2023-10-19T15:32:35;20.00;;;3.78;;
54307;SDS011;40208;39.778;2.710;2023-10-19T15:36:04;16.50;;;3.40;;
54307;SDS011;40208;39.778;2.710;2023-10-19T15:38:54;21.02;;;3.80;;
54307;SDS011;40208;39.778;2.710;2023-10-19T15:41:54;19.60;;;3.28;;
54307;SDS011;40208;39.778;2.710;2023-10-19T15:44:40;22.38;;;4.93;;
54307;SDS011;40208;39.778;2.710;2023-10-19T15:47:25;26.02;;;3.97;;
54307;SDS011;40208;39.778;2.710;2023-10-19T15:50:10;18.65;;;3.55;;
54307;SDS011;40208;39.778;2.710;2023-10-19T15:52:56;26.30;;;3.92;;
54307;SDS011;40208;39.778;2.710;2023-10-19T15:55:41;25.90;;;4.25;;
54307;SDS011;40208;39.778;2.710;2023-10-19T15:58:26;26.70;;;4.97;;
54307;SDS011;40208;39.778;2.710;2023-10-19T16:01:10;24.27;;;3.80;;
54307;SDS011;40208;39.778;2.710;2023-10-19T16:03:56;33.78;;;4.80;;
54307;SDS011;40208;39.778;2.710;2023-10-19T16:06:41;24.40;;;3.83;;
54307;SDS011;40208;39.778;2.710;2023-10-19T16:09:26;28.95;;;4.55;;
54307;SDS011;40208;39.778;2.710;2023-10-19T16:12:11;21.48;;;3.67;;
54307;SDS011;40208;39.778;2.710;2023-10-19T16:14:56;29.27;;;5.15;;
54307;SDS011;40208;39.778;2.710;2023-10-19T16:17:41;23.23;;;4.60;;
54307;SDS011;40208;39.778;2.710;2023-10-19T16:20:27;28.33;;;4.40;;
54307;SDS011;40208;39.778;2.710;2023-10-19T16:23:13;27.33;;;3.60;;
54307;SDS011;40208;39.778;2.710;2023-10-19T16:25:58;26.60;;;4.53;;
54307;SDS011;40208;39.778;2.710;2023-10-19T16:28:44;30.45;;;4.45;;
54307;SDS011;40208;39.778;2.710;2023-10-19T16:31:34;19.10;;;3.90;;
54307;SDS011;40208;39.778;2.710;2023-10-19T16:34:19;20.17;;;3.90;;
54307;SDS011;40208;39.778;2.710;2023-10-19T16:37:03;23.65;;;4.57;;
54307;SDS011;40208;39.778;2.710;2023-10-19T16:39:48;26.35;;;4.55;;
54307;SDS011;40208;39.778;2.710;2023-10-19T16:42:34;20.75;;;3.42;;
54307;SDS011;40208;39.778;2.710;2023-10-19T16:45:19;25.98;;;4.95;;
54307;SDS011;40208;39.778;2.710;2023-10-19T16:48:05;25.98;;;4.68;;
54307;SDS011;40208;39.778;2.710;2023-10-19T16:50:50;30.88;;;4.30;;
54307;SDS011;40208;39.778;2.710;2023-10-19T16:53:44;27.17;;;3.80;;
54307;SDS011;40208;39.778;2.710;2023-10-19T16:56:29;40.08;;;4.57;;
54307;SDS011;40208;39.778;2.710;2023-10-19T16:59:14;21.35;;;3.83;;
54307;SDS011;40208;39.778;2.710;2023-10-19T17:02:02;36.33;;;4.15;;
54307;SDS011;40208;39.778;2.710;2023-10-19T17:04:53;24.08;;;3.88;;
54307;SDS011;40208;39.778;2.710;2023-10-19T17:07:38;27.75;;;4.85;;
54307;SDS011;40208;39.778;2.710;2023-10-19T17:10:22;26.05;;;4.10;;
54307;SDS011;40208;39.778;2.710;2023-10-19T17:13:07;21.70;;;4.65;;
54307;SDS011;40208;39.778;2.710;2023-10-19T17:15:53;24.63;;;4.55;;
54307;SDS011;40208;39.778;2.710;2023-10-19T17:18:38;29.58;;;3.70;;
54307;SDS011;40208;39.778;2.710;2023-10-19T17:21:24;20.73;;;4.07;;
54307;SDS011;40208;39.778;2.710;2023-10-19T17:24:08;31.15;;;4.53;;
54307;SDS011;40208;39.778;2.710;2023-10-19T17:26:54;25.15;;;5.03;;
54307;SDS011;40208;39.778;2.710;2023-10-19T17:29:39;17.45;;;3.70;;
54307;SDS011;40208;39.778;2.710;2023-10-19T17:32:24;25.15;;;4.65;;
54307;SDS011;40208;39.778;2.710;2023-10-19T17:35:09;23.00;;;3.95;;
54307;SDS011;40208;39.778;2.710;2023-10-19T17:37:54;30.30;;;4.65;;
54307;SDS011;40208;39.778;2.710;2023-10-19T17:40:39;24.25;;;4.40;;